Hugo, Minnesota
Current Conditions -  °F | °C
As of 11:14 PM on Sunday 19 Oct 2014 (Local Time) from KANE Reporting Station
Clear Clear  
Wind Chill: 57°   Ceiling: Unl
Heat Index: 57°   Visibility: 10mi
Dew Point: 45°   Wind: 12mph
Humidity: 63%   Direction: 310°NW
Pressure: 29.84"   Gusts: NA
Location:  45.16°N, 92.99°W
Report Text: KANE 200414Z AUTO 31010KT 10SM CLR 14/07 A2984 RMK AO2
Loading
Personal Weather Stations






























Interactive Weather Map
Tropical Storm Tracking
New forecast layout! Learn more

10-Day Weather Forecast

Advertisements
Track Severe Weather on mobile